createdAt,value
2023-01-02T00:00:52.066Z,74.01
2023-01-02T00:01:52.020Z,73.81
2023-01-02T00:02:52.186Z,74.11
2023-01-02T00:03:52.113Z,72.89
2023-01-02T00:04:51.977Z,73.10
2023-01-02T00:05:51.995Z,74.52
2023-01-02T00:06:52.014Z,74.62
2023-01-02T00:07:51.971Z,73.19
2023-01-02T00:08:51.949Z,74.52
2023-01-02T00:09:51.998Z,73.81
2023-01-02T00:10:53.188Z,73.71
2023-01-02T00:11:51.905Z,74.32
2023-01-02T00:12:51.908Z,74.05
2023-01-02T00:13:51.894Z,74.11
2023-01-02T00:14:51.903Z,74.11
2023-01-02T00:15:51.933Z,73.91
2023-01-02T00:16:51.859Z,73.60
2023-01-02T00:17:51.899Z,74.01
2023-01-02T00:18:51.835Z,74.01
2023-01-02T00:19:51.874Z,73.71
2023-01-02T00:20:51.814Z,74.11
2023-01-02T00:21:51.787Z,74.21
2023-01-02T00:22:51.786Z,74.52
2023-01-02T00:23:51.787Z,74.21
2023-01-02T00:24:51.756Z,73.81
2023-01-02T00:25:51.761Z,74.11
2023-01-02T00:26:51.757Z,73.91
2023-01-02T00:27:51.740Z,73.81
2023-01-02T00:28:51.728Z,74.32
2023-01-02T00:29:51.719Z,74.32
2023-01-02T00:30:51.774Z,73.19
2023-01-02T00:31:51.675Z,73.30
2023-01-02T00:32:51.683Z,73.60
2023-01-02T00:33:51.660Z,73.40
2023-01-02T00:34:51.670Z,73.50
2023-01-02T00:35:51.643Z,73.19
2023-01-02T00:36:51.660Z,73.19
2023-01-02T00:37:51.619Z,73.60
2023-01-02T00:38:51.611Z,73.30
2023-01-02T00:39:51.620Z,72.58
2023-01-02T00:40:51.591Z,72.58
2023-01-02T00:41:51.615Z,72.99
2023-01-02T00:42:51.567Z,72.69
2023-01-02T00:43:51.572Z,72.08
2023-01-02T00:44:51.580Z,72.08
2023-01-02T00:45:51.633Z,71.94
2023-01-02T00:46:51.575Z,71.84
2023-01-02T00:47:51.513Z,71.94
2023-01-02T00:48:51.520Z,71.73
2023-01-02T00:49:51.476Z,72.24
2023-01-02T00:50:51.475Z,71.33
2023-01-02T00:51:51.467Z,71.84
2023-01-02T00:52:51.456Z,72.24
2023-01-02T00:53:51.464Z,72.04
2023-01-02T00:54:51.433Z,72.45
2023-01-02T00:55:51.436Z,71.94
2023-01-02T00:56:51.412Z,72.45
2023-01-02T00:57:51.402Z,72.04
2023-01-02T00:58:51.403Z,71.63
2023-01-02T00:59:51.377Z,71.43
2023-01-02T01:00:51.422Z,71.53
2023-01-02T01:01:51.598Z,71.33
2023-01-02T01:02:51.391Z,71.94
2023-01-02T01:03:51.363Z,71.63
2023-01-02T01:04:51.319Z,72.24
2023-01-02T01:05:51.315Z,72.24
2023-01-02T01:06:51.330Z,71.43
2023-01-02T01:07:51.276Z,71.30
2023-01-02T01:08:52.239Z,71.02
2023-01-02T01:09:51.270Z,71.09
2023-01-02T01:10:51.260Z,71.09
2023-01-02T01:11:51.263Z,70.48
2023-01-02T01:12:51.239Z,70.48
2023-01-02T01:13:51.218Z,70.28
2023-01-02T01:14:51.208Z,70.17
2023-01-02T01:15:51.221Z,70.78
2023-01-02T01:16:51.184Z,70.68
2023-01-02T01:17:51.221Z,70.58
2023-01-02T01:18:51.178Z,69.97
2023-01-02T01:19:51.151Z,70.58
2023-01-02T01:20:51.138Z,70.78
2023-01-02T01:21:51.142Z,70.17
2023-01-02T01:22:51.150Z,69.67
2023-01-02T01:23:51.126Z,69.97
2023-01-02T01:24:51.122Z,68.95
2023-01-02T01:25:51.087Z,69.12
2023-01-02T01:26:51.088Z,68.71
2023-01-02T01:27:51.081Z,69.36
2023-01-02T01:28:51.066Z,69.53
2023-01-02T01:29:51.060Z,68.92
2023-01-02T01:30:51.075Z,68.82
2023-01-02T01:31:51.087Z,69.02
2023-01-02T01:32:51.041Z,68.62
2023-01-02T01:33:51.030Z,68.82
2023-01-02T01:34:50.998Z,68.82
2023-01-02T01:35:51.000Z,68.71
2023-01-02T01:36:50.962Z,67.80
2023-01-02T01:37:50.958Z,69.02
2023-01-02T01:38:50.973Z,68.31
2023-01-02T01:39:55.483Z,68.10
2023-01-02T01:40:51.931Z,67.90
2023-01-02T01:41:50.914Z,69.02
2023-01-02T01:42:52.127Z,68.01
2023-01-02T01:43:50.913Z,68.92
2023-01-02T01:44:50.872Z,68.92
2023-01-02T01:45:50.919Z,69.02
2023-01-02T01:46:50.868Z,68.71
2023-01-02T01:47:50.838Z,67.80
2023-01-02T01:48:50.826Z,67.87
2023-01-02T01:49:50.858Z,67.77
2023-01-02T01:50:50.816Z,67.57
2023-01-02T01:51:50.804Z,67.66
2023-01-02T01:52:50.786Z,67.46
2023-01-02T01:53:50.773Z,67.36
2023-01-02T01:54:50.756Z,67.16
2023-01-02T01:55:50.765Z,67.77
2023-01-02T01:56:50.755Z,67.36
2023-01-02T01:57:50.753Z,67.57
2023-01-02T01:58:50.731Z,67.87
2023-01-02T01:59:50.704Z,67.77
2023-01-02T02:00:50.749Z,68.07
2023-01-02T02:01:50.863Z,67.57
2023-01-02T02:02:50.869Z,69.09
2023-01-02T02:03:50.659Z,67.57
2023-01-02T02:04:50.648Z,67.77
2023-01-02T02:05:50.652Z,67.77
2023-01-02T02:06:50.646Z,68.88
2023-01-02T02:07:50.632Z,67.87
2023-01-02T02:08:50.597Z,68.18
2023-01-02T02:09:50.678Z,68.07
2023-01-02T02:10:50.587Z,67.77
2023-01-02T02:11:50.581Z,68.18
2023-01-02T02:12:50.560Z,67.36
2023-01-02T02:13:50.580Z,67.46
2023-01-02T02:14:50.552Z,67.57
2023-01-02T02:15:50.530Z,68.58
2023-01-02T02:16:50.556Z,68.18
2023-01-02T02:17:50.510Z,67.87
2023-01-02T02:18:50.501Z,67.87
2023-01-02T02:19:50.548Z,67.33
2023-01-02T02:20:50.472Z,66.92
2023-01-02T02:21:50.579Z,67.02
2023-01-02T02:22:50.497Z,67.02
2023-01-02T02:23:50.464Z,66.92
2023-01-02T02:24:50.422Z,66.00
2023-01-02T02:25:50.451Z,66.92
2023-01-02T02:26:50.428Z,66.00
2023-01-02T02:27:50.402Z,66.69
2023-01-02T02:28:50.402Z,67.13
2023-01-02T02:29:50.377Z,66.61
2023-01-02T02:30:50.361Z,66.00
2023-01-02T02:31:50.412Z,66.31
2023-01-02T02:32:50.335Z,66.61
2023-01-02T02:33:50.329Z,66.79
2023-01-02T02:34:50.334Z,66.21
2023-01-02T02:35:50.307Z,65.60
2023-01-02T02:36:50.296Z,66.00
2023-01-02T02:37:50.325Z,66.52
2023-01-02T02:38:50.271Z,66.92
2023-01-02T02:39:50.289Z,67.02
2023-01-02T02:40:50.273Z,66.79
2023-01-02T02:41:50.242Z,67.02
2023-01-02T02:42:50.223Z,67.33
2023-01-02T02:43:50.239Z,66.69
2023-01-02T02:44:50.204Z,66.31
2023-01-02T02:45:50.265Z,66.28
2023-01-02T02:46:50.181Z,66.18
2023-01-02T02:47:50.190Z,66.08
2023-01-02T02:48:50.221Z,66.69
2023-01-02T02:49:52.243Z,66.18
2023-01-02T02:50:50.147Z,66.69
2023-01-02T02:51:50.133Z,65.36
2023-01-02T02:52:50.180Z,65.97
2023-01-02T02:53:50.119Z,66.08
2023-01-02T02:54:50.116Z,65.57
2023-01-02T02:55:50.087Z,65.77
2023-01-02T02:56:50.097Z,66.58
2023-01-02T02:57:50.066Z,66.08
2023-01-02T02:58:50.067Z,65.77
2023-01-02T02:59:50.042Z,65.67
2023-01-02T03:00:50.085Z,65.36
2023-01-02T03:01:50.234Z,66.69
2023-01-02T03:02:50.148Z,65.36
2023-01-02T03:03:50.018Z,65.77
2023-01-02T03:04:50.008Z,65.47
2023-01-02T03:05:49.981Z,64.65
2023-01-02T03:06:49.959Z,65.77
2023-01-02T03:07:49.957Z,65.36
2023-01-02T03:08:49.960Z,65.47
2023-01-02T03:09:49.953Z,65.36
2023-01-02T03:10:49.926Z,65.67
2023-01-02T03:11:49.920Z,65.36
2023-01-02T03:12:49.916Z,65.26
2023-01-02T03:13:49.889Z,65.26
2023-01-02T03:14:49.874Z,65.26
2023-01-02T03:15:49.903Z,65.06
2023-01-02T03:16:49.956Z,65.06
2023-01-02T03:17:49.864Z,65.47
2023-01-02T03:18:49.877Z,65.06
2023-01-02T03:19:49.829Z,65.88
2023-01-02T03:20:49.808Z,66.28
2023-01-02T03:21:49.800Z,66.92
2023-01-02T03:22:49.788Z,66.61
2023-01-02T03:23:49.801Z,65.80
2023-01-02T03:24:49.770Z,66.08
2023-01-02T03:25:49.781Z,66.61
2023-01-02T03:26:49.736Z,66.72
2023-01-02T03:27:49.737Z,66.41
2023-01-02T03:28:49.722Z,66.61
2023-01-02T03:29:49.729Z,66.82
2023-01-02T03:30:49.748Z,66.61
2023-01-02T03:31:49.687Z,66.61
2023-01-02T03:32:49.675Z,66.00
2023-01-02T03:33:49.692Z,66.41
2023-01-02T03:34:49.675Z,66.00
2023-01-02T03:35:49.679Z,66.21
2023-01-02T03:36:49.646Z,66.41
2023-01-02T03:37:49.647Z,66.72
2023-01-02T03:38:49.609Z,65.91
2023-01-02T03:39:49.605Z,66.92
2023-01-02T03:40:49.658Z,66.96
2023-01-02T03:41:49.697Z,67.16
2023-01-02T03:42:49.571Z,67.05
2023-01-02T03:43:56.374Z,67.05
2023-01-02T03:44:50.538Z,67.46
2023-01-02T03:45:49.598Z,66.96
2023-01-02T03:46:49.528Z,67.46
2023-01-02T03:47:49.509Z,67.87
2023-01-02T03:48:49.505Z,67.97
2023-01-02T03:49:49.494Z,67.77
2023-01-02T03:50:49.489Z,67.87
2023-01-02T03:51:49.462Z,66.96
2023-01-02T03:52:49.448Z,66.75
2023-01-02T03:53:49.446Z,67.26
2023-01-02T03:54:49.454Z,66.65
2023-01-02T03:55:49.427Z,66.96
2023-01-02T03:56:49.403Z,66.85
2023-01-02T03:57:55.190Z,66.24
2023-01-02T03:58:50.397Z,65.94
2023-01-02T03:59:49.376Z,66.96
2023-01-02T04:00:49.395Z,66.44
2023-01-02T04:01:49.547Z,67.26
2023-01-02T04:02:49.375Z,66.04
2023-01-02T04:03:49.336Z,65.94
2023-01-02T04:04:51.128Z,67.16
2023-01-02T04:05:49.334Z,67.26
2023-01-02T04:06:49.312Z,67.46
2023-01-02T04:07:49.293Z,66.75
2023-01-02T04:08:49.270Z,65.94
2023-01-02T04:09:49.262Z,67.16
2023-01-02T04:10:54.520Z,66.55
2023-01-02T04:11:50.255Z,66.35
2023-01-02T04:12:49.243Z,66.85
2023-01-02T04:13:49.362Z,66.75
2023-01-02T04:14:49.202Z,66.85
2023-01-02T04:15:49.263Z,66.96
2023-01-02T04:16:49.178Z,66.85
2023-01-02T04:17:49.193Z,66.44
2023-01-02T04:18:49.155Z,67.46
2023-01-02T04:19:49.171Z,66.75
2023-01-02T04:20:49.156Z,66.96
2023-01-02T04:21:49.151Z,66.38
2023-01-02T04:22:49.116Z,66.04
2023-01-02T04:23:49.148Z,66.04
2023-01-02T04:24:49.098Z,66.75
2023-01-02T04:25:49.112Z,66.85
2023-01-02T04:26:50.046Z,67.26
2023-01-02T04:27:49.061Z,66.96
2023-01-02T04:28:49.067Z,67.49
2023-01-02T04:29:49.067Z,67.29
2023-01-02T04:30:49.097Z,67.19
2023-01-02T04:31:49.032Z,66.88
2023-01-02T04:32:49.041Z,66.78
2023-01-02T04:33:49.000Z,67.19
2023-01-02T04:34:48.987Z,67.19
2023-01-02T04:35:49.000Z,66.88
2023-01-02T04:36:48.982Z,66.88
2023-01-02T04:37:48.951Z,66.88
2023-01-02T04:38:48.945Z,67.19
2023-01-02T04:39:48.953Z,67.49
2023-01-02T04:40:48.922Z,66.99
2023-01-02T04:41:48.926Z,67.32
2023-01-02T04:42:48.919Z,67.90
2023-01-02T04:43:48.894Z,67.19
2023-01-02T04:44:48.873Z,67.22
2023-01-02T04:45:48.911Z,66.91
2023-01-02T04:46:48.878Z,67.83
2023-01-02T04:47:48.895Z,68.95
2023-01-02T04:48:48.851Z,67.63
2023-01-02T04:49:48.833Z,66.91
2023-01-02T04:50:48.835Z,66.91
2023-01-02T04:51:48.800Z,67.93
2023-01-02T04:52:48.782Z,69.06
2023-01-02T04:53:48.810Z,68.85
2023-01-02T04:54:48.767Z,68.85
2023-01-02T04:55:48.758Z,68.78
2023-01-02T04:56:48.749Z,68.88
2023-01-02T04:57:48.727Z,69.09
2023-01-02T04:58:48.753Z,68.68
2023-01-02T04:59:48.726Z,68.98
2023-01-02T05:00:48.714Z,68.78
2023-01-02T05:01:48.763Z,68.88
2023-01-02T05:02:48.688Z,68.71
2023-01-02T05:03:48.782Z,68.07
2023-01-02T05:04:48.655Z,68.37
2023-01-02T05:05:48.660Z,69.02
2023-01-02T05:06:48.650Z,68.78
2023-01-02T05:07:48.624Z,68.91
2023-01-02T05:08:48.617Z,69.02
2023-01-02T05:09:48.609Z,68.81
2023-01-02T05:10:48.589Z,68.81
2023-01-02T05:11:48.599Z,69.12
2023-01-02T05:12:48.566Z,69.96
2023-01-02T05:13:48.575Z,70.17
2023-01-02T05:14:48.603Z,69.73
2023-01-02T05:15:48.588Z,70.07
2023-01-02T05:16:48.540Z,70.37
2023-01-02T05:17:48.632Z,70.27
2023-01-02T05:18:48.541Z,70.07
2023-01-02T05:19:48.512Z,69.66
2023-01-02T05:20:48.492Z,70.37
2023-01-02T05:21:48.477Z,70.17
2023-01-02T05:22:48.455Z,70.37
2023-01-02T05:23:48.453Z,69.96
2023-01-02T05:24:48.507Z,70.92
2023-01-02T05:25:48.451Z,70.31
2023-01-02T05:26:48.415Z,70.37
2023-01-02T05:27:48.425Z,69.96
2023-01-02T05:28:48.392Z,70.07
2023-01-02T05:29:48.391Z,69.76
2023-01-02T05:30:48.382Z,69.15
2023-01-02T05:31:48.366Z,68.95
2023-01-02T05:32:48.400Z,69.05
2023-01-02T05:33:48.351Z,69.25
2023-01-02T05:34:48.332Z,68.91
2023-01-02T05:35:48.325Z,69.02
2023-01-02T05:36:48.363Z,69.25
2023-01-02T05:37:48.331Z,69.73
2023-01-02T05:38:48.286Z,69.93
2023-01-02T05:39:48.613Z,69.63
2023-01-02T05:40:48.259Z,69.66
2023-01-02T05:41:48.260Z,70.27
2023-01-02T05:42:48.250Z,70.27
2023-01-02T05:43:48.254Z,69.76
2023-01-02T05:44:48.212Z,69.76
2023-01-02T05:45:48.194Z,69.76
2023-01-02T05:46:48.269Z,70.17
2023-01-02T05:47:48.206Z,69.32
2023-01-02T05:48:48.177Z,70.07
2023-01-02T05:49:48.177Z,70.24
2023-01-02T05:50:48.158Z,69.76
2023-01-02T05:51:48.126Z,69.76
2023-01-02T05:52:48.156Z,70.04
2023-01-02T05:53:48.105Z,69.93
2023-01-02T05:54:48.098Z,69.83
2023-01-02T05:55:48.084Z,70.17
2023-01-02T05:56:48.080Z,69.73
2023-01-02T05:57:48.087Z,69.76
2023-01-02T05:58:48.086Z,70.14
2023-01-02T05:59:48.046Z,69.76
2023-01-02T06:00:48.039Z,69.83
2023-01-02T06:01:48.184Z,69.42
2023-01-02T06:02:48.839Z,69.42
2023-01-02T06:03:48.400Z,69.96
2023-01-02T06:04:47.995Z,70.17
2023-01-02T06:05:48.009Z,69.76
2023-01-02T06:06:47.988Z,70.37
2023-01-02T06:07:47.955Z,70.17
2023-01-02T06:08:47.966Z,70.57
2023-01-02T06:09:47.930Z,70.17
2023-01-02T06:10:47.929Z,70.40
2023-01-02T06:11:47.959Z,70.40
2023-01-02T06:12:47.911Z,70.31
2023-01-02T06:13:47.909Z,70.20
2023-01-02T06:14:47.892Z,70.51
2023-01-02T06:15:47.869Z,71.12
2023-01-02T06:16:47.918Z,71.46
2023-01-02T06:17:47.903Z,71.53
2023-01-02T06:18:47.862Z,72.07
2023-01-02T06:19:53.662Z,71.67
2023-01-02T06:20:48.842Z,71.67
2023-01-02T06:21:47.927Z,71.91
2023-01-02T06:22:47.801Z,71.91
2023-01-02T06:23:47.817Z,71.80
2023-01-02T06:24:47.791Z,72.41
2023-01-02T06:25:47.764Z,72.41
2023-01-02T06:26:47.751Z,72.21
2023-01-02T06:27:47.743Z,72.41
2023-01-02T06:28:47.733Z,72.31
2023-01-02T06:29:47.798Z,72.72
2023-01-02T06:30:47.716Z,72.11
2023-01-02T06:31:51.403Z,72.31
2023-01-02T06:32:47.700Z,72.52
2023-01-02T06:33:47.696Z,72.21
2023-01-02T06:34:47.685Z,72.72
2023-01-02T06:35:47.647Z,72.45
2023-01-02T06:36:47.640Z,72.72
2023-01-02T06:37:47.649Z,72.65
2023-01-02T06:38:47.629Z,72.55
2023-01-02T06:39:47.624Z,72.65
2023-01-02T06:40:47.596Z,71.91
2023-01-02T06:41:47.596Z,72.65
2023-01-02T06:42:47.590Z,72.65
2023-01-02T06:43:47.573Z,73.06
2023-01-02T06:44:47.603Z,73.03
2023-01-02T06:45:47.623Z,72.86
2023-01-02T06:46:47.556Z,73.57
2023-01-02T06:47:47.513Z,73.98
2023-01-02T06:48:47.516Z,73.68
2023-01-02T06:49:47.510Z,73.36
2023-01-02T06:50:47.497Z,73.47
2023-01-02T06:51:47.464Z,73.91
2023-01-02T06:52:47.485Z,73.30
2023-01-02T06:53:47.490Z,73.91
2023-01-02T06:54:47.468Z,73.68
2023-01-02T06:55:47.433Z,74.08
2023-01-02T06:56:47.442Z,73.16
2023-01-02T06:57:47.418Z,74.11
2023-01-02T06:58:47.423Z,74.73
2023-01-02T06:59:47.395Z,73.98
2023-01-02T07:00:47.489Z,73.98
2023-01-02T07:01:47.552Z,73.98
2023-01-02T07:02:47.550Z,74.08
2023-01-02T07:03:47.344Z,74.18
2023-01-02T07:04:47.336Z,74.08
2023-01-02T07:05:47.325Z,73.88
2023-01-02T07:06:47.307Z,74.08
2023-01-02T07:07:47.289Z,74.39
2023-01-02T07:08:47.310Z,74.69
2023-01-02T07:09:47.377Z,74.49
2023-01-02T07:10:52.635Z,74.18
2023-01-02T07:11:48.244Z,74.08
2023-01-02T07:12:47.271Z,74.15
2023-01-02T07:13:47.221Z,74.39
2023-01-02T07:14:47.224Z,74.29
2023-01-02T07:15:47.199Z,74.59
2023-01-02T07:16:47.230Z,74.39
2023-01-02T07:17:47.168Z,74.18
2023-01-02T07:18:47.196Z,74.59
2023-01-02T07:19:53.224Z,74.29
2023-01-02T07:20:48.142Z,74.87
2023-01-02T07:21:47.149Z,74.69
2023-01-02T07:22:47.123Z,75.21
2023-01-02T07:23:47.145Z,76.03
2023-01-02T07:24:47.091Z,74.18
2023-01-02T07:25:47.098Z,74.80
2023-01-02T07:26:47.119Z,75.51
2023-01-02T07:27:47.097Z,75.10
2023-01-02T07:28:47.052Z,74.56
2023-01-02T07:29:47.039Z,74.66
2023-01-02T07:30:47.035Z,74.39
2023-01-02T07:31:47.093Z,75.62
2023-01-02T07:32:47.020Z,74.90
2023-01-02T07:33:47.033Z,75.62
2023-01-02T07:34:46.991Z,74.87
2023-01-02T07:35:47.005Z,75.00
2023-01-02T07:36:47.014Z,73.94
2023-01-02T07:37:46.959Z,75.07
2023-01-02T07:38:46.945Z,74.25
2023-01-02T07:39:46.935Z,74.18
2023-01-02T07:40:48.273Z,74.15
2023-01-02T07:41:46.924Z,74.66
2023-01-02T07:42:46.889Z,74.25
2023-01-02T07:43:46.912Z,74.35
2023-01-02T07:44:46.879Z,74.15
2023-01-02T07:45:50.308Z,73.94
2023-01-02T07:46:46.854Z,74.46
2023-01-02T07:47:46.837Z,74.15
2023-01-02T07:48:46.842Z,74.35
2023-01-02T07:49:46.812Z,73.94
2023-01-02T07:50:46.823Z,73.64
2023-01-02T07:51:46.792Z,74.35
2023-01-02T07:52:46.793Z,74.76
2023-01-02T07:53:46.765Z,74.66
2023-01-02T07:54:46.777Z,74.25
2023-01-02T07:55:46.739Z,74.05
2023-01-02T07:56:46.749Z,74.46
2023-01-02T07:57:46.770Z,74.15
2023-01-02T07:58:46.734Z,73.94
2023-01-02T07:59:46.718Z,74.46
2023-01-02T08:00:46.695Z,74.25
2023-01-02T08:01:46.835Z,73.44
2023-01-02T08:02:46.700Z,73.44
2023-01-02T08:03:46.695Z,73.74
2023-01-02T08:04:46.672Z,73.84
2023-01-02T08:05:46.657Z,73.44
2023-01-02T08:06:46.628Z,73.74
2023-01-02T08:07:46.665Z,73.94
2023-01-02T08:08:46.650Z,73.84
2023-01-02T08:09:46.584Z,73.44
2023-01-02T08:10:46.590Z,73.74
2023-01-02T08:11:46.580Z,73.94
2023-01-02T08:12:46.567Z,73.13
2023-01-02T08:13:46.629Z,73.84
2023-01-02T08:14:46.543Z,74.25
2023-01-02T08:15:46.522Z,73.13
2023-01-02T08:16:46.578Z,73.84
2023-01-02T08:17:46.522Z,74.05
2023-01-02T08:18:46.499Z,73.84
2023-01-02T08:19:46.491Z,73.40
2023-01-02T08:20:46.469Z,73.33
2023-01-02T08:21:46.453Z,73.10
2023-01-02T08:22:46.500Z,73.60
2023-01-02T08:23:46.429Z,73.19
2023-01-02T08:24:46.448Z,73.10
2023-01-02T08:25:46.405Z,73.40
2023-01-02T08:26:46.395Z,73.19
2023-01-02T08:27:46.413Z,72.69
2023-01-02T08:28:46.372Z,72.69
2023-01-02T08:29:46.373Z,72.79
2023-01-02T08:30:46.399Z,72.48
2023-01-02T08:31:46.333Z,72.55
2023-01-02T08:32:46.349Z,72.58
2023-01-02T08:33:46.318Z,72.75
2023-01-02T08:34:46.330Z,72.24
2023-01-02T08:35:46.290Z,72.55
2023-01-02T08:36:46.292Z,72.34
2023-01-02T08:37:50.428Z,72.34
2023-01-02T08:38:46.260Z,72.04
2023-01-02T08:39:46.250Z,72.04
2023-01-02T08:40:46.271Z,71.73
2023-01-02T08:41:46.347Z,71.94
2023-01-02T08:42:46.231Z,71.09
2023-01-02T08:43:46.227Z,71.80
2023-01-02T08:44:46.195Z,71.09
2023-01-02T08:45:46.240Z,70.98
2023-01-02T08:46:46.220Z,71.39
2023-01-02T08:47:46.160Z,71.91
2023-01-02T08:48:46.158Z,71.39
2023-01-02T08:49:46.151Z,70.98
2023-01-02T08:50:46.129Z,71.29
2023-01-02T08:51:46.120Z,71.29
2023-01-02T08:52:46.124Z,70.98
2023-01-02T08:53:46.101Z,71.50
2023-01-02T08:54:46.076Z,71.29
2023-01-02T08:55:46.106Z,71.39
2023-01-02T08:56:46.089Z,71.19
2023-01-02T08:57:46.047Z,70.68
2023-01-02T08:58:52.059Z,71.19
2023-01-02T08:59:47.328Z,70.98
2023-01-02T09:00:46.022Z,70.98
2023-01-02T09:01:46.353Z,71.60
2023-01-02T09:02:46.279Z,72.62
2023-01-02T09:03:45.990Z,72.92
2023-01-02T09:04:47.060Z,73.23
2023-01-02T09:05:46.061Z,72.69
2023-01-02T09:06:45.982Z,73.13
2023-01-02T09:07:45.930Z,73.33
2023-01-02T09:08:45.964Z,72.48
2023-01-02T09:09:45.913Z,73.84
2023-01-02T09:10:46.343Z,73.64
2023-01-02T09:11:52.941Z,72.99
2023-01-02T09:12:45.890Z,72.79
2023-01-02T09:13:45.932Z,71.87
2023-01-02T09:14:45.857Z,71.77
2023-01-02T09:15:46.006Z,71.06
2023-01-02T09:16:45.838Z,71.26
2023-01-02T09:17:45.849Z,71.15
2023-01-02T09:18:45.901Z,71.26
2023-01-02T09:19:45.789Z,71.77
2023-01-02T09:20:45.795Z,71.12
2023-01-02T09:21:45.775Z,71.36
2023-01-02T09:22:45.779Z,71.12
2023-01-02T09:23:46.777Z,70.31
2023-01-02T09:24:45.738Z,71.33
2023-01-02T09:25:45.724Z,71.33
2023-01-02T09:26:45.750Z,71.33
2023-01-02T09:27:45.701Z,70.51
2023-01-02T09:28:45.727Z,70.51
2023-01-02T09:29:45.720Z,70.82
2023-01-02T09:30:45.747Z,70.92
2023-01-02T09:31:45.722Z,70.51
2023-01-02T09:32:45.668Z,70.61
2023-01-02T09:33:45.761Z,68.65
2023-01-02T09:34:45.633Z,70.07
2023-01-02T09:35:45.632Z,70.31
2023-01-02T09:36:45.621Z,70.31
2023-01-02T09:37:45.616Z,70.17
2023-01-02T09:38:45.589Z,70.38
2023-01-02T09:39:45.579Z,69.67
2023-01-02T09:40:45.571Z,70.28
2023-01-02T09:41:45.586Z,68.95
2023-01-02T09:42:45.551Z,70.07
2023-01-02T09:43:45.544Z,69.97
2023-01-02T09:44:45.527Z,70.17
2023-01-02T09:45:45.505Z,69.87
2023-01-02T09:46:45.609Z,70.28
2023-01-02T09:47:45.490Z,69.97
2023-01-02T09:48:45.477Z,70.78
2023-01-02T09:49:45.565Z,69.46
2023-01-02T09:50:45.477Z,71.09
2023-01-02T09:51:45.524Z,70.78
2023-01-02T09:52:45.444Z,70.38
2023-01-02T09:53:45.427Z,70.28
2023-01-02T09:54:45.405Z,70.89
2023-01-02T09:55:45.420Z,70.38
2023-01-02T09:56:45.392Z,70.78
2023-01-02T09:57:45.417Z,70.78
2023-01-02T09:58:45.401Z,70.58
2023-01-02T09:59:45.431Z,71.09
2023-01-02T10:00:45.338Z,68.95
2023-01-02T10:01:45.390Z,69.36
2023-01-02T10:02:45.428Z,69.06
2023-01-02T10:03:45.974Z,69.67
2023-01-02T10:04:45.371Z,69.06
2023-01-02T10:05:46.539Z,69.36
2023-01-02T10:06:45.295Z,69.67
2023-01-02T10:07:45.276Z,69.76
2023-01-02T10:08:45.289Z,69.67
2023-01-02T10:09:45.283Z,69.76
2023-01-02T10:10:45.324Z,69.76
2023-01-02T10:11:45.249Z,69.46
2023-01-02T10:12:45.211Z,68.95
2023-01-02T10:14:17.321Z,69.15
2023-01-02T10:14:46.235Z,69.67
2023-01-02T10:15:45.349Z,69.46
2023-01-02T10:16:45.210Z,69.26
2023-01-02T10:17:45.175Z,69.56
2023-01-02T10:18:45.163Z,70.04
2023-01-02T10:19:45.274Z,70.07
2023-01-02T10:20:45.193Z,70.04
2023-01-02T10:21:45.222Z,69.67
2023-01-02T10:22:45.137Z,70.45
2023-01-02T10:23:45.155Z,70.24
2023-01-02T10:24:45.134Z,69.06
2023-01-02T10:25:49.557Z,69.23
2023-01-02T10:26:46.086Z,69.43
2023-01-02T10:27:45.158Z,68.75
2023-01-02T10:28:45.101Z,68.92
2023-01-02T10:29:45.151Z,70.04
2023-01-02T10:30:45.077Z,68.75
2023-01-02T10:31:45.161Z,68.71
2023-01-02T10:32:45.112Z,68.62
2023-01-02T10:33:45.087Z,67.08
2023-01-02T10:34:45.217Z,67.69
2023-01-02T10:35:45.073Z,67.39
2023-01-02T10:36:45.036Z,67.69
2023-01-02T10:37:45.053Z,67.08
2023-01-02T10:38:44.953Z,66.88
2023-01-02T10:39:45.021Z,67.08
2023-01-02T10:40:45.027Z,66.88
2023-01-02T10:41:45.083Z,66.88
2023-01-02T10:42:45.023Z,67.19
2023-01-02T10:43:44.998Z,66.58
2023-01-02T10:44:44.974Z,67.08
2023-01-02T10:45:44.930Z,66.65
2023-01-02T10:46:45.239Z,67.29
2023-01-02T10:48:53.940Z,66.85
2023-01-02T10:49:53.984Z,67.16
2023-01-02T10:50:53.863Z,66.65
2023-01-02T10:51:53.963Z,66.35
2023-01-02T10:52:53.874Z,66.35
2023-01-02T10:53:53.819Z,66.55
2023-01-02T10:54:59.662Z,65.83
2023-01-02T10:55:54.868Z,66.96
2023-01-02T10:56:53.816Z,66.35
2023-01-02T10:57:53.780Z,65.53
2023-01-02T10:58:53.767Z,67.02
2023-01-02T10:59:53.827Z,66.11
2023-01-02T11:00:53.876Z,66.65
2023-01-02T11:01:54.052Z,65.39
2023-01-02T11:02:56.328Z,65.80
2023-01-02T11:03:53.743Z,66.41
2023-01-02T11:05:53.289Z,66.41
2023-01-02T11:06:53.187Z,66.61
2023-01-02T11:07:53.241Z,66.92
2023-01-02T11:08:53.190Z,66.82
2023-01-02T11:09:53.233Z,66.31
2023-01-02T11:10:53.128Z,66.00
2023-01-02T11:11:53.144Z,66.52
2023-01-02T11:12:53.169Z,66.00
2023-01-02T11:13:54.467Z,65.50
2023-01-02T11:14:53.314Z,65.60
2023-01-02T11:15:53.246Z,64.69
2023-01-02T11:16:53.206Z,64.48
2023-01-02T11:17:53.260Z,64.28
2023-01-02T11:18:53.251Z,64.45
2023-01-02T11:19:53.232Z,64.15
2023-01-02T11:20:53.277Z,65.47
2023-01-02T11:21:53.191Z,64.79
2023-01-02T11:22:53.022Z,64.65
2023-01-02T11:23:53.237Z,64.18
2023-01-02T11:24:59.568Z,64.76
2023-01-02T11:25:53.972Z,64.55
2023-01-02T11:26:52.999Z,65.57
2023-01-02T11:27:52.961Z,64.86
2023-01-02T11:28:53.020Z,65.77
2023-01-02T11:29:53.022Z,65.26
2023-01-02T11:30:52.934Z,64.86
2023-01-02T11:31:57.802Z,65.47
2023-01-02T11:32:53.019Z,64.35
2023-01-02T11:33:52.889Z,63.54
2023-01-02T11:34:52.856Z,64.04
2023-01-02T11:35:52.847Z,64.45
2023-01-02T11:36:52.850Z,64.25
2023-01-02T11:37:52.977Z,63.64
2023-01-02T11:38:52.847Z,63.71
2023-01-02T11:39:52.824Z,64.93
2023-01-02T11:40:52.832Z,64.86
2023-01-02T11:41:52.958Z,64.01
2023-01-02T11:42:52.847Z,64.73
2023-01-02T11:43:52.780Z,63.94
2023-01-02T11:44:52.847Z,62.70
2023-01-02T11:45:52.830Z,64.12
2023-01-02T11:46:52.745Z,64.25
2023-01-02T11:47:52.722Z,64.15
2023-01-02T11:48:52.704Z,63.64
2023-01-02T11:49:52.698Z,62.79
2023-01-02T11:50:52.739Z,62.79
2023-01-02T11:51:52.681Z,63.94
2023-01-02T11:52:52.700Z,63.84
2023-01-02T11:53:52.706Z,63.71
2023-01-02T11:54:52.675Z,64.22
2023-01-02T11:55:52.675Z,64.96
2023-01-02T11:56:52.645Z,63.51
2023-01-02T11:57:52.622Z,64.01
2023-01-02T11:58:52.617Z,65.03
2023-01-02T11:59:52.624Z,63.71
2023-01-02T12:00:52.592Z,64.83
2023-01-02T12:01:52.712Z,64.22
2023-01-02T12:02:52.765Z,62.90
2023-01-02T12:03:52.676Z,62.49
2023-01-02T12:04:52.522Z,62.90
2023-01-02T12:05:52.625Z,62.39
2023-01-02T12:06:52.563Z,63.40
2023-01-02T12:07:52.501Z,63.91
2023-01-02T12:08:52.552Z,63.37
2023-01-02T12:09:52.544Z,63.60
2023-01-02T12:10:52.493Z,63.17
2023-01-02T12:11:52.572Z,62.87
2023-01-02T12:12:52.521Z,62.76
2023-01-02T12:13:52.489Z,63.28
2023-01-02T12:14:54.813Z,61.75
2023-01-02T12:15:52.500Z,62.53
2023-01-02T12:16:52.508Z,62.84
2023-01-02T12:17:52.366Z,62.84
2023-01-02T12:18:52.366Z,62.94
2023-01-02T12:19:52.484Z,62.13
2023-01-02T12:20:52.617Z,61.52
2023-01-02T12:21:52.446Z,61.52
2023-01-02T12:22:52.365Z,59.89
2023-01-02T12:23:52.314Z,61.32
2023-01-02T12:24:52.400Z,60.40
2023-01-02T12:25:52.387Z,60.71
2023-01-02T12:26:52.377Z,61.01
2023-01-02T12:27:52.310Z,60.50
2023-01-02T12:28:52.355Z,60.91
2023-01-02T12:29:52.239Z,60.40
2023-01-02T12:30:52.310Z,61.82
2023-01-02T12:31:52.355Z,62.05
2023-01-02T12:32:52.240Z,62.23
2023-01-02T12:33:52.245Z,62.36
2023-01-02T12:34:52.188Z,62.87
2023-01-02T12:35:52.306Z,62.66
2023-01-02T12:36:52.188Z,62.87
2023-01-02T12:37:52.190Z,62.90
2023-01-02T12:38:52.188Z,62.79
2023-01-02T12:39:52.256Z,62.18
2023-01-02T12:40:52.172Z,61.47
2023-01-02T12:42:01.020Z,62.36
2023-01-02T12:42:53.119Z,61.78
2023-01-02T12:43:52.206Z,62.56
2023-01-02T12:44:52.164Z,62.26
2023-01-02T12:45:52.166Z,62.66
2023-01-02T12:46:52.116Z,60.83
2023-01-02T12:47:52.093Z,61.55
2023-01-02T12:48:52.970Z,61.75
2023-01-02T12:49:52.204Z,61.55
2023-01-02T12:50:52.147Z,60.63
2023-01-02T12:51:52.151Z,61.44
2023-01-02T12:52:52.129Z,61.85
2023-01-02T12:54:19.148Z,61.44
2023-01-02T12:54:52.222Z,61.65